createdAt,value
2023-02-27T00:00:41.757Z,15.55
2023-02-27T00:05:43.603Z,15.35
2023-02-27T00:10:45.238Z,15.40
2023-02-27T00:15:49.062Z,15.85
2023-02-27T00:20:50.733Z,15.82
2023-02-27T00:25:52.445Z,14.87
2023-02-27T00:30:55.848Z,14.77
2023-02-27T00:35:58.764Z,16.17
2023-02-27T00:41:00.512Z,16.42
2023-02-27T00:46:03.746Z,15.55
2023-02-27T00:51:05.752Z,15.80
2023-02-27T00:56:07.872Z,14.82
2023-02-27T01:01:11.045Z,16.02
2023-02-27T01:06:12.780Z,14.60
2023-02-27T01:11:14.556Z,17.05
2023-02-27T01:16:17.743Z,15.80
2023-02-27T01:21:19.491Z,16.42
2023-02-27T01:26:21.325Z,16.23
2023-02-27T01:31:24.736Z,16.42
2023-02-27T01:36:26.920Z,15.50
2023-02-27T01:41:28.848Z,15.48
2023-02-27T01:46:33.437Z,15.43
2023-02-27T01:51:38.786Z,15.25
2023-02-27T01:56:42.397Z,15.15
2023-02-27T02:01:46.013Z,17.27
2023-02-27T02:06:52.739Z,16.03
2023-02-27T02:11:55.127Z,16.30
2023-02-27T02:17:19.225Z,14.70
2023-02-27T02:22:55.156Z,15.55
2023-02-27T02:28:09.943Z,15.23
2023-02-27T02:33:29.823Z,14.85
2023-02-27T02:39:18.720Z,14.50
2023-02-27T02:44:26.985Z,16.15
2023-02-27T02:49:36.068Z,14.52
2023-02-27T02:54:43.392Z,14.55
2023-02-27T02:59:50.304Z,15.55
2023-02-27T03:04:56.180Z,14.38
2023-02-27T03:10:04.718Z,14.55
2023-02-27T03:15:11.982Z,15.60
2023-02-27T03:20:22.024Z,15.52
2023-02-27T03:25:26.145Z,15.05
2023-02-27T03:30:32.431Z,15.65
2023-02-27T03:35:43.503Z,15.45
2023-02-27T03:40:53.541Z,14.73
2023-02-27T03:46:02.114Z,15.18
2023-02-27T03:51:05.110Z,15.10
2023-02-27T03:56:10.068Z,15.13
2023-02-27T04:01:11.927Z,15.52
2023-02-27T04:06:13.673Z,14.25
2023-02-27T04:11:33.988Z,14.80
2023-02-27T04:16:56.765Z,14.40
2023-02-27T04:22:11.525Z,15.95
2023-02-27T04:27:27.033Z,15.27
2023-02-27T04:32:35.469Z,14.73
2023-02-27T04:37:44.317Z,15.43
2023-02-27T04:42:50.471Z,14.63
2023-02-27T04:47:55.969Z,14.23
2023-02-27T04:53:01.344Z,16.00
2023-02-27T04:58:10.177Z,15.85
2023-02-27T05:03:14.339Z,15.18
2023-02-27T05:08:21.288Z,15.18
2023-02-27T05:13:27.963Z,15.57
2023-02-27T05:18:30.009Z,15.52
2023-02-27T05:23:39.049Z,15.75
2023-02-27T05:28:50.638Z,14.90
2023-02-27T05:33:57.589Z,15.38
2023-02-27T05:39:02.397Z,14.23
2023-02-27T05:44:08.466Z,15.00
2023-02-27T05:49:14.917Z,13.98
2023-02-27T05:54:24.242Z,15.77
2023-02-27T05:59:34.066Z,15.73
2023-02-27T06:04:35.872Z,14.80
2023-02-27T06:09:37.611Z,14.55
2023-02-27T06:14:40.621Z,15.35
2023-02-27T06:19:42.297Z,15.35
2023-02-27T06:24:43.961Z,15.57
2023-02-27T06:29:46.939Z,14.93
2023-02-27T06:34:48.557Z,15.48
2023-02-27T06:39:50.217Z,14.82
2023-02-27T06:44:53.212Z,15.48
2023-02-27T06:49:54.840Z,13.77
2023-02-27T06:54:56.507Z,15.45
2023-02-27T06:59:59.527Z,15.20
2023-02-27T07:05:01.301Z,14.87
2023-02-27T07:10:12.294Z,15.63
2023-02-27T07:20:17.092Z,14.77
2023-02-27T07:25:18.917Z,15.10
2023-02-27T07:30:22.099Z,14.27
2023-02-27T07:35:23.815Z,15.60
2023-02-27T07:40:25.496Z,14.82
2023-02-27T07:45:28.670Z,16.50
2023-02-27T07:50:30.341Z,16.45
2023-02-27T07:55:32.065Z,14.98
2023-02-27T08:00:35.162Z,15.70
2023-02-27T08:05:36.991Z,15.65
2023-02-27T08:10:38.686Z,15.55
2023-02-27T08:15:41.721Z,15.40
2023-02-27T08:20:43.474Z,14.77
2023-02-27T08:25:45.203Z,15.38
2023-02-27T08:30:48.629Z,15.88
2023-02-27T08:35:50.355Z,15.27
2023-02-27T08:40:55.223Z,16.48
2023-02-27T08:45:58.545Z,16.20
2023-02-27T08:51:06.269Z,16.83
2023-02-27T08:56:14.243Z,16.02
2023-02-27T09:01:54.469Z,15.68
2023-02-27T09:06:57.595Z,14.85
2023-02-27T09:11:59.241Z,15.80
2023-02-27T09:17:00.971Z,15.68
2023-02-27T09:22:04.085Z,15.93
2023-02-27T09:27:05.813Z,16.83
2023-02-27T09:32:07.682Z,15.55
2023-02-27T09:37:10.868Z,16.12
2023-02-27T09:42:16.440Z,15.93
2023-02-27T09:47:26.357Z,14.57
2023-02-27T09:52:31.906Z,15.60
2023-02-27T09:57:49.535Z,14.63
2023-02-27T10:02:59.547Z,14.52
2023-02-27T10:08:11.691Z,14.68
2023-02-27T10:13:34.076Z,15.63
2023-02-27T10:18:46.560Z,15.50
2023-02-27T10:23:55.651Z,14.75
2023-02-27T10:28:58.337Z,15.65
2023-02-27T10:34:01.237Z,14.80
2023-02-27T10:39:07.314Z,14.65
2023-02-27T10:44:14.498Z,14.87
2023-02-27T10:49:19.210Z,14.82
2023-02-27T10:54:24.246Z,15.23
2023-02-27T10:59:28.510Z,14.60
2023-02-27T11:04:33.784Z,14.93
2023-02-27T11:09:37.247Z,15.20
2023-02-27T11:14:49.739Z,13.80
2023-02-27T11:19:51.492Z,14.63
2023-02-27T11:25:18.785Z,13.55
2023-02-27T11:30:24.672Z,13.95
2023-02-27T11:35:29.689Z,13.45
2023-02-27T11:40:36.546Z,14.27
2023-02-27T11:46:04.881Z,14.05
2023-02-27T11:51:31.485Z,14.30
2023-02-27T11:56:37.396Z,14.40
2023-02-27T12:01:45.262Z,14.18
2023-02-27T12:06:51.795Z,12.77
2023-02-27T12:11:56.218Z,14.30
2023-02-27T12:17:02.785Z,14.35
2023-02-27T12:22:07.066Z,12.77
2023-02-27T12:27:20.030Z,14.48
2023-02-27T12:32:25.393Z,14.75
2023-02-27T12:37:29.751Z,14.68
2023-02-27T12:42:55.136Z,15.30
2023-02-27T12:48:13.324Z,13.93
2023-02-27T12:53:29.510Z,12.98
2023-02-27T12:58:44.885Z,12.25
2023-02-27T13:03:54.053Z,13.57
2023-02-27T13:09:09.196Z,12.43
2023-02-27T13:19:26.309Z,13.30
2023-02-27T13:24:29.645Z,11.82
2023-02-27T13:29:37.981Z,13.55
2023-02-27T13:34:42.840Z,12.63
2023-02-27T13:44:57.138Z,12.13
2023-02-27T13:49:59.746Z,12.50
2023-02-27T13:55:11.948Z,13.10
2023-02-27T14:00:22.586Z,12.55
2023-02-27T14:05:29.653Z,11.25
2023-02-27T14:10:32.427Z,11.80
2023-02-27T14:15:56.208Z,12.35
2023-02-27T14:20:57.874Z,12.93
2023-02-27T14:26:05.658Z,12.15
2023-02-27T14:31:19.965Z,13.10
2023-02-27T14:36:23.659Z,12.57
2023-02-27T14:41:34.718Z,12.40
2023-02-27T14:46:39.694Z,13.10
2023-02-27T14:51:41.595Z,12.70
2023-02-27T14:56:54.002Z,12.73
2023-02-27T15:01:59.008Z,11.93
2023-02-27T15:07:01.131Z,13.52
2023-02-27T15:12:04.832Z,12.30
2023-02-27T15:17:17.847Z,12.15
2023-02-27T15:22:37.641Z,11.93
2023-02-27T15:27:41.915Z,12.93
2023-02-27T15:32:45.216Z,12.70
2023-02-27T15:37:52.744Z,12.13
2023-02-27T15:42:55.656Z,12.37
2023-02-27T15:47:59.178Z,12.73
2023-02-27T15:53:04.912Z,13.40
2023-02-27T15:58:17.661Z,12.60
2023-02-27T16:03:23.829Z,13.85
2023-02-27T16:08:25.741Z,13.27
2023-02-27T16:13:34.066Z,12.52
2023-02-27T16:18:44.423Z,12.90
2023-02-27T16:23:46.854Z,13.27
2023-02-27T16:28:54.112Z,13.65
2023-02-27T16:33:59.327Z,13.20
2023-02-27T16:39:01.339Z,12.48
2023-02-27T16:44:03.372Z,13.62
2023-02-27T16:49:19.175Z,13.45
2023-02-27T16:54:22.111Z,13.82
2023-02-27T16:59:31.017Z,13.93
2023-02-27T17:04:34.142Z,13.88
2023-02-27T17:09:35.802Z,13.82
2023-02-27T17:14:37.565Z,13.40
2023-02-27T17:19:40.593Z,13.60
2023-02-27T17:24:42.266Z,13.02
2023-02-27T17:29:43.998Z,13.27
2023-02-27T17:34:47.129Z,14.65
2023-02-27T17:39:49.076Z,13.90
2023-02-27T17:44:50.939Z,14.90
2023-02-27T17:49:54.128Z,15.05
2023-02-27T17:54:55.901Z,13.05
2023-02-27T17:59:57.761Z,14.20
2023-02-27T18:05:03.794Z,14.60
2023-02-27T18:10:07.861Z,13.90
2023-02-27T18:15:10.232Z,13.70
2023-02-27T18:20:13.680Z,14.18
2023-02-27T18:25:16.782Z,13.65
2023-02-27T18:30:18.842Z,13.77
2023-02-27T18:35:22.314Z,14.57
2023-02-27T18:40:24.079Z,13.95
2023-02-27T18:45:25.909Z,14.68
2023-02-27T18:50:29.120Z,14.70
2023-02-27T18:55:30.947Z,15.05
2023-02-27T19:00:32.746Z,14.70
2023-02-27T19:05:40.675Z,15.30
2023-02-27T19:10:45.945Z,15.18
2023-02-27T19:15:48.339Z,15.55
2023-02-27T19:21:03.412Z,14.82
2023-02-27T19:26:05.403Z,14.93
2023-02-27T19:31:08.823Z,14.87
2023-02-27T19:36:14.471Z,14.50
2023-02-27T19:41:17.480Z,17.00
2023-02-27T19:46:42.498Z,14.85
2023-02-27T19:51:47.803Z,15.02
2023-02-27T19:56:57.392Z,15.13
2023-02-27T20:01:59.781Z,15.48
2023-02-27T20:07:04.521Z,15.18
2023-02-27T20:12:06.695Z,14.70
2023-02-27T20:17:08.639Z,14.65
2023-02-27T20:22:12.294Z,14.65
2023-02-27T20:27:14.232Z,13.93
2023-02-27T20:32:16.350Z,15.13
2023-02-27T20:37:19.672Z,15.55
2023-02-27T20:42:21.362Z,14.27
2023-02-27T20:47:23.099Z,14.45
2023-02-27T20:52:26.294Z,15.25
2023-02-27T20:57:28.065Z,15.27
2023-02-27T21:02:29.736Z,15.38
2023-02-27T21:07:32.730Z,15.13
2023-02-27T21:12:34.470Z,16.02
2023-02-27T21:17:36.213Z,14.57
2023-02-27T21:22:39.346Z,15.38
2023-02-27T21:27:41.029Z,16.23
2023-02-27T21:32:43.769Z,15.50
2023-02-27T21:37:46.883Z,14.85
2023-02-27T21:42:48.715Z,16.02
2023-02-27T21:53:24.553Z,15.73
2023-02-27T21:58:26.365Z,15.55
2023-02-27T22:03:28.507Z,15.27
2023-02-27T22:08:31.569Z,15.85
2023-02-27T22:13:34.002Z,14.98
2023-02-27T22:18:37.572Z,14.93
2023-02-27T22:23:40.749Z,14.70
2023-02-27T22:28:42.902Z,15.90
2023-02-27T22:33:46.678Z,15.88
2023-02-27T22:38:50.365Z,15.50
2023-02-27T22:43:52.400Z,18.97
2023-02-27T22:48:55.151Z,16.62
2023-02-27T22:53:59.693Z,15.32
2023-02-27T22:59:01.516Z,15.65
2023-02-27T23:04:05.147Z,15.57
2023-02-27T23:09:11.051Z,16.70
2023-02-27T23:14:13.935Z,16.73
2023-02-27T23:19:18.233Z,15.95
2023-02-27T23:24:21.262Z,16.75
2023-02-27T23:29:22.949Z,16.48
2023-02-27T23:34:24.626Z,15.45
2023-02-27T23:39:27.874Z,16.73
2023-02-27T23:44:29.545Z,15.80
2023-02-27T23:49:31.188Z,15.73
2023-02-27T23:54:34.549Z,16.08
2023-02-27T23:59:36.175Z,17.20
